Time;durP1;ratioP1;P1;durP2;ratioP2;P2;SDS_P1;SDS_P2;PMS_P1;PMS_P2;Temp;Humidity;BMP_temperature;BMP_pressure;BME280_temperature;BME280_humidity;BME280_pressure;Samples;Min_cycle;Max_cycle;Signal;HPM_P1;HPM_P2
2023/03/23 00:02:15;;;;;;;2.00;0.97;;;13.50;86.70;13.50;99744.00;;;;4933745;28;87992;-63
2023/03/23 00:04:42;;;;;;;0.40;0.40;;;13.50;86.90;13.40;99741.00;;;;4935477;28;90045;-63
2023/03/23 00:07:27;;;;;;;0.20;0.20;;;13.50;87.20;13.40;99745.00;;;;4932503;28;88745;-64
2023/03/23 00:09:55;;;;;;;0.87;0.40;;;13.50;87.40;13.40;99743.00;;;;4931759;28;87794;-63
2023/03/23 00:12:33;;;;;;;1.30;0.88;;;13.40;87.60;13.40;99745.00;;;;4933626;28;88827;-63
2023/03/23 00:15:12;;;;;;;1.40;0.30;;;13.40;87.90;13.30;99752.00;;;;4931981;28;87880;-65
2023/03/23 00:17:43;;;;;;;0.77;0.70;;;13.40;88.10;13.30;99743.00;;;;4917060;28;87871;-63
2023/03/23 00:20:11;;;;;;;0.30;0.30;;;13.30;88.30;13.30;99741.00;;;;4931687;28;87673;-63
2023/03/23 00:22:38;;;;;;;0.30;0.30;;;13.20;88.40;13.20;99737.00;;;;4934349;28;88962;-65
2023/03/23 00:25:05;;;;;;;4.53;0.60;;;13.30;88.70;13.20;99741.00;;;;4910059;28;87135;-64
2023/03/23 00:27:31;;;;;;;0.83;0.40;;;13.20;88.80;13.20;99738.00;;;;4933338;28;99453;-63
2023/03/23 00:29:57;;;;;;;1.63;0.80;;;13.20;89.10;13.20;99739.00;;;;4932771;28;106850;-65
2023/03/23 00:32:28;;;;;;;0.40;0.40;;;13.20;89.20;13.20;99733.00;;;;4931515;28;116918;-63
2023/03/23 00:34:55;;;;;;;0.23;0.23;;;13.10;89.40;13.20;99743.00;;;;4931452;28;89483;-64
2023/03/23 00:37:21;;;;;;;0.97;0.77;;;13.10;89.50;13.10;99731.00;;;;4931031;28;88273;-63
2023/03/23 00:39:46;;;;;;;0.40;0.40;;;13.10;89.60;13.20;99741.00;;;;4933093;28;109786;-64
2023/03/23 00:42:14;;;;;;;2.27;0.60;;;13.10;89.80;13.10;99735.00;;;;4933604;28;88228;-63
2023/03/23 00:44:40;;;;;;;1.27;0.80;;;13.10;89.90;13.10;99735.00;;;;4932160;28;88134;-63
2023/03/23 00:47:08;;;;;;;1.90;0.90;;;13.10;90.00;13.10;99727.00;;;;4931992;28;87798;-63
2023/03/23 00:49:34;;;;;;;0.40;0.30;;;13.10;90.10;13.10;99736.00;;;;4928980;28;87291;-63
2023/03/23 00:52:01;;;;;;;0.73;0.33;;;13.10;90.10;13.10;99724.00;;;;4929867;28;116551;-63
2023/03/23 00:54:27;;;;;;;1.30;0.40;;;13.10;90.20;13.10;99717.00;;;;4931551;28;88078;-63
2023/03/23 00:56:54;;;;;;;2.40;0.97;;;13.10;90.30;13.10;99717.00;;;;4931280;28;103192;-63
2023/03/23 00:59:20;;;;;;;1.20;0.60;;;13.10;90.30;13.10;99708.00;;;;4932087;28;87946;-64
2023/03/23 01:01:47;;;;;;;0.67;0.47;;;13.10;90.40;13.10;99711.00;;;;4931637;28;111079;-63
2023/03/23 01:04:14;;;;;;;1.03;0.70;;;13.00;90.40;13.00;99704.00;;;;4929859;28;111932;-63
2023/03/23 01:06:43;;;;;;;1.15;0.93;;;13.00;90.50;13.00;99712.00;;;;4934282;28;87728;-63
2023/03/23 01:09:17;;;;;;;0.63;0.43;;;13.00;90.60;13.00;99705.00;;;;4933071;28;87814;-63
2023/03/23 01:11:47;;;;;;;0.40;0.27;;;13.00;90.70;13.00;99697.00;;;;4935242;28;87722;-63
2023/03/23 01:14:15;;;;;;;4.40;0.40;;;13.00;90.70;13.00;99693.00;;;;4932599;28;88727;-64
2023/03/23 01:16:46;;;;;;;0.30;0.20;;;13.00;90.70;13.00;99700.00;;;;4930537;28;88015;-64
2023/03/23 01:19:12;;;;;;;1.57;0.73;;;13.00;90.60;13.10;99695.00;;;;4932742;28;107904;-64
2023/03/23 01:21:38;;;;;;;0.53;0.37;;;13.00;90.60;13.10;99686.00;;;;4932961;28;88715;-63
2023/03/23 01:24:07;;;;;;;1.53;0.70;;;13.00;90.60;13.10;99678.00;;;;4929591;28;98024;-63
2023/03/23 01:26:32;;;;;;;1.47;0.40;;;13.10;90.60;13.10;99679.00;;;;4932862;28;87783;-64
2023/03/23 01:28:58;;;;;;;1.80;0.93;;;13.10;90.40;13.20;99683.00;;;;4932731;28;109009;-64
2023/03/23 01:31:26;;;;;;;0.60;0.40;;;13.10;90.40;13.20;99671.00;;;;4930170;28;117754;-64
2023/03/23 01:33:52;;;;;;;0.73;0.47;;;13.20;90.40;13.20;99670.00;;;;4930212;28;87923;-62
2023/03/23 01:36:28;;;;;;;1.70;0.77;;;13.10;90.40;13.10;99670.00;;;;4932405;28;87746;-65
2023/03/23 01:38:55;;;;;;;0.43;0.43;;;13.20;90.40;13.10;99668.00;;;;4930443;28;88116;-62
2023/03/23 01:41:21;;;;;;;0.30;0.30;;;13.10;90.40;13.10;99665.00;;;;4931663;28;87940;-63
2023/03/23 01:44:16;;;;;;;0.67;0.57;;;13.10;90.50;13.00;99673.00;;;;4930837;28;104734;-64
2023/03/23 01:46:43;;;;;;;0.50;0.50;;;13.00;90.50;13.00;99663.00;;;;4910045;28;93612;-64
2023/03/23 01:49:13;;;;;;;0.50;0.47;;;13.00;90.60;12.90;99660.00;;;;4935479;28;88131;-65
2023/03/23 01:51:50;;;;;;;0.73;0.67;;;13.00;90.80;12.90;99657.00;;;;4936485;28;88611;-65
2023/03/23 01:54:20;;;;;;;0.77;0.40;;;12.90;90.70;12.90;99664.00;;;;4934917;28;87967;-64
2023/03/23 01:57:01;;;;;;;1.87;0.67;;;12.90;90.70;12.90;99656.00;;;;4919272;28;87969;-64
2023/03/23 01:59:29;;;;;;;1.13;0.40;;;12.90;90.80;12.90;99658.00;;;;4932651;28;87877;-64
2023/03/23 02:01:55;;;;;;;0.30;0.30;;;12.90;90.80;12.80;99664.00;;;;4934259;28;88657;-65
2023/03/23 02:04:24;;;;;;;0.10;0.10;;;12.80;90.80;12.80;99659.00;;;;4937777;28;87750;-66
2023/03/23 02:06:51;;;;;;;0.30;0.20;;;12.80;90.90;12.70;99659.00;;;;4914780;28;87658;-65
2023/03/23 02:09:17;;;;;;;0.40;0.40;;;12.70;90.90;12.70;99658.00;;;;4910664;28;100864;-65
2023/03/23 02:11:44;;;;;;;0.33;0.33;;;12.70;91.00;12.60;99664.00;;;;4930423;28;89192;-65
2023/03/23 02:14:10;;;;;;;0.70;0.70;;;12.60;91.10;12.50;99660.00;;;;4930132;28;88025;-65
2023/03/23 02:16:57;;;;;;;0.40;0.40;;;12.60;91.20;12.50;99661.00;;;;4935968;28;97564;-65
2023/03/23 02:19:50;;;;;;;0.40;0.40;;;12.50;91.30;12.40;99657.00;;;;4933043;28;102921;-65
2023/03/23 02:22:27;;;;;;;1.10;0.50;;;12.50;91.40;12.40;99648.00;;;;4931244;28;89050;-65
2023/03/23 02:25:30;;;;;;;0.50;0.30;;;12.40;91.50;12.30;99650.00;;;;4935055;28;87823;-65
2023/03/23 02:28:39;;;;;;;1.27;0.60;;;12.40;91.60;12.30;99650.00;;;;4918732;28;103788;-65
2023/03/23 02:31:42;;;;;;;0.60;0.60;;;12.40;91.70;12.30;99644.00;;;;4916542;28;87255;-64
2023/03/23 02:34:20;;;;;;;1.27;0.50;;;12.30;91.80;12.30;99643.00;;;;4932575;28;88806;-65
2023/03/23 02:36:56;;;;;;;1.20;0.53;;;12.30;91.90;12.20;99647.00;;;;4934889;28;106362;-65
2023/03/23 02:39:30;;;;;;;0.33;0.33;;;12.30;92.00;12.20;99637.00;;;;4936491;28;93270;-65
2023/03/23 02:42:06;;;;;;;1.70;0.83;;;12.30;92.10;12.20;99642.00;;;;4899678;28;88091;-64
2023/03/23 02:44:36;;;;;;;0.23;0.23;;;12.10;91.90;12.30;99637.00;;;;4916211;28;88086;-64
2023/03/23 02:47:07;;;;;;;0.17;0.17;;;12.30;91.90;12.30;99636.00;;;;4932176;28;88284;-64
2023/03/23 02:49:36;;;;;;;1.20;0.47;;;12.30;91.80;12.40;99643.00;;;;4934085;28;102080;-64
2023/03/23 02:52:14;;;;;;;0.40;0.40;;;12.40;91.70;12.40;99631.00;;;;4917324;28;101933;-65
2023/03/23 02:54:44;;;;;;;0.30;0.30;;;12.40;91.70;12.40;99638.00;;;;4915672;28;89111;-65
2023/03/23 02:57:10;;;;;;;0.20;0.20;;;12.40;91.50;12.40;99635.00;;;;4933977;28;88432;-64
2023/03/23 02:59:36;;;;;;;0.30;0.30;;;12.40;91.30;12.50;99624.00;;;;4931907;28;88167;-64
2023/03/23 03:02:41;;;;;;;0.20;0.20;;;12.50;91.20;12.50;99626.00;;;;4934348;28;104990;-65
2023/03/23 03:05:38;;;;;;;0.33;0.33;;;12.50;91.20;12.40;99631.00;;;;4922721;28;89273;-64
2023/03/23 03:08:31;;;;;;;0.93;0.60;;;12.40;91.20;12.40;99629.00;;;;4933883;28;89028;-65
2023/03/23 03:11:08;;;;;;;1.03;0.30;;;12.50;90.90;12.50;99625.00;;;;4926227;28;104745;-64
2023/03/23 03:13:47;;;;;;;2.23;0.53;;;12.40;90.80;12.50;99613.00;;;;4932064;28;87769;-64
2023/03/23 03:16:28;;;;;;;0.47;0.47;;;12.50;90.60;12.60;99624.00;;;;4930558;28;88232;-64
2023/03/23 03:19:02;;;;;;;0.50;0.30;;;12.60;90.60;12.60;99619.00;;;;4933561;28;110206;-64
2023/03/23 03:21:37;;;;;;;0.20;0.20;;;12.50;90.40;12.60;99609.00;;;;4909786;28;87969;-64
2023/03/23 03:24:07;;;;;;;0.30;0.30;;;12.60;90.10;12.70;99620.00;;;;4932180;28;101306;-63
2023/03/23 03:26:34;;;;;;;0.83;0.40;;;12.70;90.00;12.80;99615.00;;;;4916834;28;87689;-63
2023/03/23 03:29:01;;;;;;;0.30;0.30;;;12.70;90.00;12.80;99609.00;;;;4932831;28;117143;-65
2023/03/23 03:31:37;;;;;;;0.53;0.50;;;12.70;89.70;12.80;99607.00;;;;4912578;28;110886;-63
2023/03/23 03:34:03;;;;;;;0.27;0.27;;;12.80;89.70;12.80;99611.00;;;;4918578;28;88332;-63
2023/03/23 03:36:34;;;;;;;1.00;0.47;;;12.70;89.40;12.80;99611.00;;;;4913965;28;109728;-63
2023/03/23 03:39:07;;;;;;;0.27;0.27;;;12.80;89.40;12.80;99616.00;;;;4911469;28;88824;-64
2023/03/23 03:41:37;;;;;;;0.50;0.40;;;12.80;89.00;12.80;99611.00;;;;4931650;28;88107;-64
2023/03/23 03:44:05;;;;;;;1.40;0.57;;;12.80;88.80;12.80;99615.00;;;;4930062;28;88065;-64
2023/03/23 03:46:31;;;;;;;1.00;0.40;;;12.80;88.50;12.90;99614.00;;;;4935924;28;88294;-63
2023/03/23 03:48:58;;;;;;;0.23;0.23;;;12.80;88.30;12.90;99603.00;;;;4931909;28;88285;-65
2023/03/23 03:51:26;;;;;;;1.13;0.40;;;12.90;88.00;13.00;99604.00;;;;4933533;28;104010;-63
2023/03/23 03:53:52;;;;;;;0.10;0.10;;;12.90;87.70;13.00;99609.00;;;;4931283;28;104647;-64
2023/03/23 03:56:19;;;;;;;0.43;0.40;;;13.00;87.80;13.10;99603.00;;;;4931566;28;118607;-64
2023/03/23 03:58:48;;;;;;;0.40;0.40;;;13.00;87.20;13.10;99604.00;;;;4930993;28;88758;-63
2023/03/23 04:01:15;;;;;;;0.50;0.47;;;13.00;87.20;13.10;99609.00;;;;4931619;28;87659;-64
2023/03/23 04:03:42;;;;;;;0.33;0.27;;;13.10;86.90;13.20;99610.00;;;;4932838;28;89636;-65
2023/03/23 04:06:09;;;;;;;0.40;0.40;;;13.10;86.90;13.20;99615.00;;;;4934048;28;108756;-63
2023/03/23 04:08:41;;;;;;;3.37;0.50;;;13.20;86.90;13.20;99614.00;;;;4931086;28;88721;-63
2023/03/23 04:11:07;;;;;;;0.10;0.10;;;13.20;87.10;13.20;99606.00;;;;4934085;28;87677;-63
2023/03/23 04:13:33;;;;;;;0.80;0.50;;;13.20;86.80;13.30;99604.00;;;;4935765;28;87214;-63
2023/03/23 04:16:00;;;;;;;0.60;0.50;;;13.20;86.50;13.30;99592.00;;;;4931494;28;117045;-62
2023/03/23 04:18:26;;;;;;;0.30;0.20;;;13.20;86.10;13.30;99593.00;;;;4934695;28;88294;-63
2023/03/23 04:20:51;;;;;;;0.45;0.45;;;13.20;85.80;13.30;99584.00;;;;4933841;28;103739;-63
2023/03/23 04:23:19;;;;;;;0.30;0.20;;;13.30;85.40;13.30;99584.00;;;;4932536;28;108751;-64
2023/03/23 04:25:47;;;;;;;0.43;0.40;;;13.30;85.40;13.30;99580.00;;;;4932983;28;89052;-63
2023/03/23 04:28:16;;;;;;;0.27;0.27;;;13.30;85.40;13.30;99591.00;;;;4933824;28;88479;-64
2023/03/23 04:30:43;;;;;;;0.40;0.20;;;13.30;85.00;13.30;99595.00;;;;4928729;28;87725;-64
2023/03/23 04:33:14;;;;;;;0.47;0.33;;;13.30;84.90;13.30;99592.00;;;;4933839;28;87729;-63
2023/03/23 04:35:45;;;;;;;0.77;0.40;;;13.30;85.00;13.30;99589.00;;;;4933620;28;88406;-63
2023/03/23 04:38:11;;;;;;;0.30;0.30;;;13.40;84.70;13.40;99592.00;;;;4932270;28;88634;-63
2023/03/23 04:40:39;;;;;;;3.60;0.57;;;13.30;84.50;13.40;99580.00;;;;4933593;28;96502;-64
2023/03/23 04:43:06;;;;;;;0.80;0.50;;;13.40;84.30;13.50;99584.00;;;;4933058;28;87868;-63
2023/03/23 04:45:34;;;;;;;0.50;0.50;;;13.60;84.50;13.50;99588.00;;;;4930415;28;89743;-63
2023/03/23 04:48:01;;;;;;;0.40;0.40;;;13.40;84.00;13.60;99593.00;;;;4932968;28;90170;-64
2023/03/23 04:50:30;;;;;;;0.77;0.50;;;13.40;83.90;13.60;99581.00;;;;4935504;28;87945;-64
2023/03/23 04:52:58;;;;;;;1.90;0.30;;;13.50;83.80;13.60;99573.00;;;;4934096;28;87875;-64
2023/03/23 04:55:25;;;;;;;0.20;0.20;;;13.50;83.50;13.70;99583.00;;;;4933362;28;89520;-63
2023/03/23 04:57:51;;;;;;;0.68;0.68;;;13.60;83.40;13.70;99586.00;;;;4934818;28;87989;-63
2023/03/23 05:00:20;;;;;;;0.10;0.10;;;13.70;83.70;13.80;99583.00;;;;4929763;28;88019;-63
2023/03/23 05:02:51;;;;;;;0.90;0.60;;;13.70;83.90;13.80;99581.00;;;;4933170;28;87302;-64
2023/03/23 05:05:18;;;;;;;0.30;0.30;;;13.70;83.80;13.80;99581.00;;;;4933130;28;88635;-64
2023/03/23 05:07:44;;;;;;;0.70;0.52;;;13.80;83.90;13.80;99584.00;;;;4928432;28;88478;-64
2023/03/23 05:10:12;;;;;;;0.17;0.15;;;13.80;83.80;13.90;99580.00;;;;4929348;28;89054;-64
2023/03/23 05:12:39;;;;;;;0.20;0.20;;;13.80;83.90;13.90;99580.00;;;;4934128;28;87753;-64
2023/03/23 05:15:06;;;;;;;0.47;0.47;;;13.90;83.60;14.00;99582.00;;;;4931897;28;89008;-64
2023/03/23 05:17:33;;;;;;;0.32;0.32;;;13.90;83.80;14.00;99592.00;;;;4934780;28;87893;-63
2023/03/23 05:20:00;;;;;;;1.48;0.95;;;13.90;83.60;14.10;99586.00;;;;4933984;28;88154;-63
2023/03/23 05:22:32;;;;;;;0.35;0.30;;;14.00;83.80;14.10;99593.00;;;;4932671;28;88215;-63
2023/03/23 05:24:58;;;;;;;0.57;0.35;;;14.00;84.30;14.10;99595.00;;;;4931764;28;88980;-64
2023/03/23 05:27:27;;;;;;;1.95;0.90;;;14.10;83.70;14.10;99594.00;;;;4933218;28;92103;-63
2023/03/23 05:29:53;;;;;;;1.30;0.40;;;14.10;83.40;14.20;99592.00;;;;4932873;28;88034;-64
2023/03/23 05:32:19;;;;;;;0.55;0.35;;;14.10;83.50;14.20;99592.00;;;;4929410;28;109181;-64
2023/03/23 05:34:46;;;;;;;0.55;0.30;;;14.10;83.40;14.20;99585.00;;;;4930584;28;118981;-63
2023/03/23 05:37:13;;;;;;;0.25;0.25;;;14.10;83.30;14.20;99592.00;;;;4931306;28;89502;-64
2023/03/23 05:39:40;;;;;;;1.52;0.77;;;14.10;83.20;14.20;99595.00;;;;4930969;28;87834;-63
2023/03/23 05:42:06;;;;;;;0.85;0.47;;;14.10;83.30;14.20;99602.00;;;;4930575;28;87780;-64
2023/03/23 05:44:32;;;;;;;0.40;0.40;;;14.20;83.20;14.20;99600.00;;;;4931002;28;89020;-64
2023/03/23 05:46:57;;;;;;;0.35;0.35;;;14.10;83.40;14.30;99599.00;;;;4932748;28;115735;-63
2023/03/23 05:49:24;;;;;;;1.85;0.45;;;14.20;83.30;14.30;99596.00;;;;4929667;28;87819;-62
2023/03/23 05:51:50;;;;;;;1.15;0.60;;;14.20;83.40;14.30;99604.00;;;;4932248;28;87284;-63
2023/03/23 05:54:16;;;;;;;0.45;0.20;;;14.30;83.40;14.30;99605.00;;;;4931387;28;99480;-64
2023/03/23 05:56:42;;;;;;;1.33;0.30;;;14.30;83.50;14.30;99604.00;;;;4930617;28;117368;-64
2023/03/23 05:59:10;;;;;;;1.20;0.55;;;14.30;83.40;14.40;99593.00;;;;4929300;28;88750;-63
2023/03/23 06:01:37;;;;;;;0.70;0.57;;;14.30;83.50;14.40;99605.00;;;;4933425;28;87839;-63
2023/03/23 06:04:03;;;;;;;1.08;0.68;;;14.30;83.20;14.40;99593.00;;;;4931355;28;113054;-65
2023/03/23 06:06:31;;;;;;;0.45;0.40;;;14.30;83.10;14.50;99595.00;;;;4932981;28;88665;-64
2023/03/23 06:08:57;;;;;;;0.65;0.32;;;14.40;83.00;14.50;99586.00;;;;4930083;28;87806;-65
2023/03/23 06:11:24;;;;;;;0.57;0.30;;;14.40;82.70;14.60;99597.00;;;;4932956;28;88138;-63
2023/03/23 06:13:50;;;;;;;0.47;0.35;;;14.50;82.50;14.70;99596.00;;;;4929765;28;87770;-64
2023/03/23 06:16:16;;;;;;;0.88;0.68;;;14.60;82.40;14.70;99595.00;;;;4910466;28;93273;-64
2023/03/23 06:18:42;;;;;;;0.93;0.50;;;14.60;81.80;14.70;99587.00;;;;4929712;28;110505;-63
2023/03/23 06:21:09;;;;;;;1.60;0.85;;;14.70;81.60;14.80;99586.00;;;;4930429;28;87692;-63
2023/03/23 06:23:35;;;;;;;0.50;0.50;;;14.70;81.40;14.80;99584.00;;;;4934017;28;89883;-63
2023/03/23 06:26:06;;;;;;;0.35;0.20;;;14.70;81.40;14.80;99584.00;;;;4929996;28;116731;-64
2023/03/23 06:28:33;;;;;;;0.38;0.30;;;14.80;81.50;14.90;99596.00;;;;4929895;28;87668;-65
2023/03/23 06:31:06;;;;;;;0.40;0.35;;;14.80;81.10;14.90;99575.00;;;;4932552;28;87765;-64
2023/03/23 06:33:35;;;;;;;0.40;0.40;;;14.80;81.10;15.00;99582.00;;;;4932778;28;88035;-64
2023/03/23 06:36:02;;;;;;;0.50;0.50;;;14.90;80.20;15.10;99597.00;;;;4934799;28;100636;-63
2023/03/23 06:38:27;;;;;;;1.05;0.40;;;15.00;80.10;15.10;99586.00;;;;4933732;28;99072;-64
2023/03/23 06:40:55;;;;;;;0.20;0.20;;;15.00;80.10;15.20;99583.00;;;;4933201;28;95755;-65
2023/03/23 06:43:21;;;;;;;2.53;0.52;;;15.10;80.00;15.20;99602.00;;;;4932132;28;88467;-63
2023/03/23 06:45:47;;;;;;;1.15;0.60;;;15.10;79.90;15.30;99598.00;;;;4934958;28;101705;-64
2023/03/23 06:48:13;;;;;;;0.30;0.30;;;15.10;79.70;15.30;99597.00;;;;4934981;28;110957;-63
2023/03/23 06:50:38;;;;;;;0.45;0.30;;;15.20;79.40;15.40;99602.00;;;;4913577;28;87669;-63
2023/03/23 06:53:04;;;;;;;0.50;0.50;;;15.30;79.50;15.40;99600.00;;;;4932281;28;88348;-64
2023/03/23 06:55:30;;;;;;;0.77;0.50;;;15.30;79.00;15.40;99613.00;;;;4934914;28;87764;-63
2023/03/23 06:57:56;;;;;;;0.30;0.30;;;15.30;79.10;15.40;99617.00;;;;4929834;28;89324;-63
2023/03/23 07:00:22;;;;;;;1.15;0.68;;;15.30;78.80;15.40;99612.00;;;;4933917;28;87960;-64
2023/03/23 07:02:47;;;;;;;0.63;0.50;;;15.40;78.60;15.40;99615.00;;;;4933733;28;117290;-64
2023/03/23 07:05:14;;;;;;;1.42;0.57;;;15.40;78.50;15.50;99613.00;;;;4934176;28;107956;-64
2023/03/23 07:07:40;;;;;;;0.68;0.57;;;15.40;78.00;15.50;99610.00;;;;4936146;28;87877;-64
2023/03/23 07:10:11;;;;;;;0.90;0.65;;;15.40;77.70;15.50;99620.00;;;;4934055;28;88015;-63
2023/03/23 07:12:37;;;;;;;0.85;0.52;;;15.40;77.90;15.60;99631.00;;;;4932910;28;89258;-63
2023/03/23 07:15:05;;;;;;;1.20;0.50;;;15.50;77.90;15.60;99632.00;;;;4931635;28;88818;-63
2023/03/23 07:17:31;;;;;;;0.50;0.50;;;15.50;77.80;15.60;99638.00;;;;4931844;28;89306;-63
2023/03/23 07:20:00;;;;;;;0.90;0.68;;;15.50;77.90;15.60;99619.00;;;;4934281;28;87786;-62
2023/03/23 07:22:26;;;;;;;0.38;0.38;;;15.60;78.00;15.70;99626.00;;;;4932739;28;90158;-63
2023/03/23 07:24:51;;;;;;;0.55;0.52;;;15.60;77.60;15.80;99640.00;;;;4932345;28;116515;-63
2023/03/23 07:27:17;;;;;;;0.50;0.50;;;15.70;77.90;15.80;99633.00;;;;4932176;28;109534;-63
2023/03/23 07:30:04;;;;;;;0.50;0.50;;;15.70;77.50;15.90;99646.00;;;;4934480;28;89855;-64
2023/03/23 07:32:30;;;;;;;3.30;0.60;;;15.50;77.50;15.90;99628.00;;;;4935143;28;108144;-63
2023/03/23 07:34:55;;;;;;;5.40;0.75;;;15.90;77.70;15.90;99635.00;;;;4911418;28;101018;-63
2023/03/23 07:37:22;;;;;;;0.60;0.50;;;15.80;77.50;15.90;99648.00;;;;4934173;28;88882;-63
2023/03/23 07:39:48;;;;;;;0.20;0.20;;;15.80;77.90;15.90;99647.00;;;;4933395;28;87852;-63
2023/03/23 07:42:14;;;;;;;0.32;0.32;;;15.80;78.20;15.80;99650.00;;;;4927040;28;118906;-64
2023/03/23 07:44:39;;;;;;;0.77;0.40;;;15.80;79.00;15.80;99664.00;;;;4928418;28;118625;-63
2023/03/23 07:47:05;;;;;;;9.13;0.57;;;15.70;79.80;15.60;99666.00;;;;4931420;28;87995;-64
2023/03/23 07:49:32;;;;;;;0.75;0.50;;;15.60;79.90;15.60;99669.00;;;;4931453;28;87658;-65
2023/03/23 07:51:57;;;;;;;1.13;0.90;;;15.50;80.30;15.60;99682.00;;;;4935065;28;87889;-63
2023/03/23 07:54:24;;;;;;;1.08;0.68;;;15.60;80.60;15.60;99666.00;;;;4933175;28;114553;-64
2023/03/23 07:56:50;;;;;;;1.20;0.50;;;15.50;80.80;15.60;99683.00;;;;4934275;28;88234;-63
2023/03/23 07:59:16;;;;;;;3.88;0.57;;;15.50;81.30;15.50;99679.00;;;;4935167;28;88452;-64
2023/03/23 08:01:42;;;;;;;1.17;0.75;;;15.50;81.70;15.50;99686.00;;;;4932098;28;89690;-64
2023/03/23 08:04:08;;;;;;;1.98;0.98;;;15.50;82.50;15.50;99687.00;;;;4931920;28;99608;-64
2023/03/23 08:06:35;;;;;;;1.20;0.40;;;15.50;82.90;15.40;99693.00;;;;4928290;28;87815;-64
2023/03/23 08:09:03;;;;;;;0.43;0.40;;;15.40;84.00;15.30;99715.00;;;;4928983;28;87752;-63
2023/03/23 08:11:28;;;;;;;0.47;0.38;;;15.30;86.00;15.10;99715.00;;;;4933082;28;88591;-63
2023/03/23 08:13:54;;;;;;;1.20;1.08;;;15.10;88.20;14.70;99707.00;;;;4929516;28;117057;-64
2023/03/23 08:16:20;;;;;;;1.17;0.30;;;14.80;90.10;14.40;99708.00;;;;4934468;28;111727;-63
2023/03/23 08:18:46;;;;;;;0.82;0.40;;;14.60;91.70;14.20;99704.00;;;;4928145;28;108540;-64
2023/03/23 08:21:12;;;;;;;0.70;0.47;;;14.20;92.50;14.00;99707.00;;;;4933318;28;88942;-63
2023/03/23 08:23:39;;;;;;;0.30;0.30;;;14.10;93.80;13.80;99708.00;;;;4928410;28;115473;-64
2023/03/23 08:26:07;;;;;;;0.50;0.40;;;14.00;95.40;13.70;99708.00;;;;4931038;28;111347;-64
2023/03/23 08:28:35;;;;;;;0.68;0.30;;;13.80;96.20;13.70;99711.00;;;;4931287;28;88338;-63
2023/03/23 08:31:08;;;;;;;1.65;0.80;;;13.70;97.40;13.60;99716.00;;;;4930838;28;88926;-65
2023/03/23 08:33:33;;;;;;;0.40;0.30;;;13.70;98.20;13.60;99714.00;;;;4931971;28;87842;-63
2023/03/23 08:36:00;;;;;;;1.58;0.90;;;13.60;99.60;13.50;99725.00;;;;4929555;28;110536;-63
2023/03/23 08:38:27;;;;;;;0.63;0.63;;;13.50;99.90;13.40;99724.00;;;;4933274;28;87911;-64
2023/03/23 08:41:02;;;;;;;0.93;0.55;;;13.50;99.90;13.40;99722.00;;;;4934630;28;88325;-65
2023/03/23 08:43:28;;;;;;;1.45;0.93;;;13.40;99.90;13.30;99720.00;;;;4933455;28;88996;-65
2023/03/23 08:45:54;;;;;;;1.05;0.57;;;13.40;99.90;13.30;99718.00;;;;4935836;28;93555;-64
2023/03/23 08:48:22;;;;;;;0.67;0.63;;;13.40;99.90;13.30;99721.00;;;;4934172;28;107286;-64
2023/03/23 08:50:48;;;;;;;0.50;0.47;;;13.30;99.90;13.30;99713.00;;;;4933512;28;88630;-63
2023/03/23 08:53:14;;;;;;;0.80;0.80;;;13.30;99.90;13.30;99725.00;;;;4931639;28;99841;-63
2023/03/23 08:55:40;;;;;;;3.70;0.50;;;13.30;99.90;13.40;99720.00;;;;4927885;28;110568;-64
2023/03/23 08:58:06;;;;;;;1.80;1.53;;;13.40;99.90;13.40;99721.00;;;;4931267;28;107748;-63
2023/03/23 09:00:32;;;;;;;2.20;1.17;;;13.40;99.90;13.40;99714.00;;;;4934630;28;118195;-64
2023/03/23 09:02:58;;;;;;;1.25;0.73;;;13.40;99.90;13.30;99717.00;;;;4931494;28;87958;-64
2023/03/23 09:05:27;;;;;;;4.93;0.80;;;13.40;99.90;13.30;99724.00;;;;4932487;28;111587;-63
2023/03/23 09:07:58;;;;;;;0.80;0.77;;;13.40;99.90;13.30;99727.00;;;;4933397;28;87178;-64
2023/03/23 09:10:29;;;;;;;0.73;0.70;;;13.30;99.90;13.30;99736.00;;;;4933446;28;87721;-64
2023/03/23 09:12:56;;;;;;;0.70;0.67;;;13.30;99.90;13.20;99728.00;;;;4932092;28;88913;-63
2023/03/23 09:15:22;;;;;;;5.22;0.65;;;13.30;99.90;13.20;99719.00;;;;4931483;28;88972;-64
2023/03/23 09:17:51;;;;;;;2.93;0.73;;;13.30;99.90;13.20;99726.00;;;;4933273;28;88139;-64
2023/03/23 09:20:21;;;;;;;1.17;1.07;;;13.30;99.90;13.20;99735.00;;;;4932252;28;88597;-65
2023/03/23 09:22:51;;;;;;;4.20;1.17;;;13.20;99.90;13.20;99730.00;;;;4927874;28;88387;-64
2023/03/23 09:25:26;;;;;;;2.50;1.20;;;13.20;99.90;13.20;99735.00;;;;4929768;28;87907;-64
2023/03/23 09:27:56;;;;;;;1.20;0.70;;;13.20;99.90;13.20;99730.00;;;;4934395;28;87797;-64
2023/03/23 09:30:25;;;;;;;1.77;0.83;;;13.20;99.90;13.30;99724.00;;;;4932522;28;88871;-64
2023/03/23 09:32:51;;;;;;;5.65;0.85;;;13.30;99.90;13.40;99721.00;;;;4934340;28;88563;-63
2023/03/23 09:35:17;;;;;;;1.47;0.90;;;13.30;99.90;13.50;99722.00;;;;4933150;28;110014;-63
2023/03/23 09:37:46;;;;;;;0.90;0.90;;;13.40;99.90;13.60;99728.00;;;;4931275;28;88160;-64
2023/03/23 09:40:23;;;;;;;1.50;0.60;;;13.50;99.90;13.80;99732.00;;;;4930839;28;89574;-64
2023/03/23 09:43:09;;;;;;;0.80;0.80;;;13.70;99.90;13.90;99724.00;;;;4930707;28;109677;-63
2023/03/23 09:46:11;;;;;;;0.87;0.53;;;13.80;99.90;14.10;99730.00;;;;4927827;28;87819;-64
2023/03/23 09:48:54;;;;;;;1.40;0.82;;;14.00;99.90;14.30;99735.00;;;;4932793;28;87840;-64
2023/03/23 09:51:38;;;;;;;0.88;0.50;;;14.10;99.90;14.40;99727.00;;;;4931015;28;88038;-63
2023/03/23 09:54:17;;;;;;;2.38;0.65;;;14.20;99.90;14.50;99711.00;;;;4906619;28;93083;-64
2023/03/23 09:56:43;;;;;;;1.35;0.90;;;14.40;99.90;14.60;99706.00;;;;4929924;28;88220;-64
2023/03/23 09:59:22;;;;;;;0.77;0.43;;;14.50;99.90;14.70;99718.00;;;;4906326;28;89113;-64
2023/03/23 10:01:52;;;;;;;2.35;0.75;;;14.60;99.90;14.80;99712.00;;;;4929469;28;88060;-63
2023/03/23 10:04:37;;;;;;;0.60;0.60;;;14.70;99.90;14.80;99704.00;;;;4932899;28;87982;-64
2023/03/23 10:07:17;;;;;;;0.63;0.60;;;14.70;99.90;14.80;99708.00;;;;4907638;28;89019;-63
2023/03/23 10:09:45;;;;;;;0.93;0.50;;;14.80;99.90;14.90;99702.00;;;;4913832;28;87878;-63
2023/03/23 10:12:35;;;;;;;1.13;0.90;;;14.80;99.90;15.00;99708.00;;;;4933040;28;99655;-63
2023/03/23 10:15:25;;;;;;;1.45;0.68;;;14.90;99.90;15.10;99709.00;;;;4915811;28;88323;-63
2023/03/23 10:18:17;;;;;;;0.68;0.60;;;15.00;99.90;15.20;99705.00;;;;4913583;28;97538;-63
2023/03/23 10:20:58;;;;;;;0.63;0.43;;;15.10;99.90;15.20;99718.00;;;;4938147;28;89240;-63
2023/03/23 10:23:49;;;;;;;0.60;0.60;;;15.20;99.90;15.40;99710.00;;;;4931674;28;87937;-64
2023/03/23 10:27:04;;;;;;;0.30;0.30;;;15.20;99.90;15.50;99717.00;;;;4936249;28;87974;-64
2023/03/23 10:29:56;;;;;;;0.52;0.52;;;15.40;99.90;15.60;99714.00;;;;4916398;28;102100;-63
2023/03/23 10:32:42;;;;;;;0.75;0.57;;;15.50;99.90;15.80;99709.00;;;;4905713;28;87859;-63
2023/03/23 10:35:18;;;;;;;0.32;0.32;;;15.60;99.30;15.90;99706.00;;;;4913665;28;90030;-63
2023/03/23 10:37:52;;;;;;;0.55;0.52;;;15.70;99.10;16.00;99714.00;;;;4907281;28;87773;-62
2023/03/23 10:40:23;;;;;;;0.82;0.70;;;15.80;98.60;16.10;99699.00;;;;4913893;28;88040;-62
2023/03/23 10:42:51;;;;;;;1.05;0.63;;;15.90;98.40;16.20;99706.00;;;;4911988;28;87794;-63
2023/03/23 10:45:22;;;;;;;1.33;0.47;;;16.00;98.10;16.40;99705.00;;;;4914108;28;88799;-64
2023/03/23 10:48:32;;;;;;;1.10;0.77;;;16.20;97.40;16.60;99707.00;;;;4914305;28;88418;-64
2023/03/23 10:51:02;;;;;;;3.47;0.52;;;16.40;97.10;16.70;99699.00;;;;4906991;28;88089;-64
2023/03/23 10:53:43;;;;;;;1.10;0.57;;;16.50;96.00;16.80;99691.00;;;;4916221;28;87265;-64
2023/03/23 10:56:35;;;;;;;0.55;0.55;;;16.70;95.60;16.90;99687.00;;;;4911481;28;87985;-64
2023/03/23 10:59:20;;;;;;;0.35;0.30;;;16.70;95.30;16.90;99699.00;;;;4915837;28;108275;-63
2023/03/23 11:01:53;;;;;;;0.85;0.75;;;16.80;94.70;16.90;99693.00;;;;4916171;28;88691;-64
2023/03/23 11:04:19;;;;;;;0.60;0.50;;;16.80;93.90;16.90;99702.00;;;;4906930;28;88103;-64
2023/03/23 11:06:50;;;;;;;2.70;0.50;;;16.80;93.90;16.80;99697.00;;;;4911292;28;116111;-64
2023/03/23 11:09:19;;;;;;;0.85;0.85;;;16.80;94.10;16.80;99707.00;;;;4906794;28;88560;-64